createdAt,value
2023-04-16T00:01:23.130Z,1.58
2023-04-16T00:03:51.861Z,1.48
2023-04-16T00:06:20.485Z,1.40
2023-04-16T00:08:51.578Z,2.05
2023-04-16T00:11:19.991Z,1.65
2023-04-16T00:13:48.353Z,2.33
2023-04-16T00:16:16.854Z,1.25
2023-04-16T00:18:45.550Z,1.30
2023-04-16T00:21:14.106Z,1.67
2023-04-16T00:23:42.575Z,1.50
2023-04-16T00:26:12.559Z,1.40
2023-04-16T00:28:41.661Z,1.30
2023-04-16T00:31:10.112Z,1.58
2023-04-16T00:33:38.567Z,1.73
2023-04-16T00:36:07.491Z,1.33
2023-04-16T00:38:35.880Z,1.27
2023-04-16T00:41:04.313Z,1.17
2023-04-16T00:43:34.866Z,1.73
2023-04-16T00:46:06.751Z,1.27
2023-04-16T00:48:35.662Z,1.52
2023-04-16T00:51:04.325Z,1.23
2023-04-16T00:53:32.751Z,1.35
2023-04-16T00:56:01.291Z,2.00
2023-04-16T00:58:30.530Z,1.50
2023-04-16T01:01:00.325Z,1.42
2023-04-16T01:03:33.869Z,1.40
2023-04-16T01:06:03.255Z,1.40
2023-04-16T01:08:31.687Z,1.55
2023-04-16T01:11:00.147Z,2.10
2023-04-16T01:13:28.569Z,1.50
2023-04-16T01:15:57.106Z,2.00
2023-04-16T01:18:27.874Z,1.77
2023-04-16T01:20:57.640Z,2.13
2023-04-16T01:23:26.116Z,1.58
2023-04-16T01:25:54.757Z,1.98
2023-04-16T01:28:23.205Z,1.83
2023-04-16T01:30:51.701Z,1.50
2023-04-16T01:33:20.526Z,1.75
2023-04-16T01:35:49.054Z,1.85
2023-04-16T01:38:18.907Z,2.03
2023-04-16T01:40:47.322Z,1.70
2023-04-16T01:43:15.826Z,1.98
2023-04-16T01:45:44.485Z,2.30
2023-04-16T01:48:12.921Z,1.35
2023-04-16T01:50:41.353Z,1.80
2023-04-16T01:53:09.844Z,2.20
2023-04-16T01:55:39.635Z,2.08
2023-04-16T01:58:11.060Z,1.85
2023-04-16T02:00:39.546Z,1.55
2023-04-16T02:03:08.506Z,2.28
2023-04-16T02:05:37.036Z,1.48
2023-04-16T02:08:05.442Z,1.48
2023-04-16T02:10:33.826Z,2.10
2023-04-16T02:13:03.627Z,1.55
2023-04-16T02:15:32.002Z,1.80
2023-04-16T02:18:00.507Z,1.50
2023-04-16T02:20:29.093Z,1.65
2023-04-16T02:22:57.509Z,2.03
2023-04-16T02:25:25.953Z,1.80
2023-04-16T02:27:54.389Z,2.00
2023-04-16T02:30:24.414Z,1.85
2023-04-16T02:32:52.896Z,1.83
2023-04-16T02:35:21.445Z,1.73
2023-04-16T02:37:49.833Z,1.30
2023-04-16T02:40:18.257Z,1.58
2023-04-16T02:42:46.639Z,1.80
2023-04-16T02:45:15.223Z,1.52
2023-04-16T02:47:45.056Z,1.42
2023-04-16T02:50:13.651Z,1.55
2023-04-16T02:52:42.036Z,1.42
2023-04-16T02:55:11.144Z,1.42
2023-04-16T02:57:39.609Z,1.95
2023-04-16T03:00:08.701Z,1.27
2023-04-16T03:02:37.159Z,1.95
2023-04-16T03:05:07.500Z,1.52
2023-04-16T03:07:35.946Z,1.90
2023-04-16T03:10:04.379Z,2.00
2023-04-16T03:12:32.901Z,2.10
2023-04-16T03:15:01.534Z,2.17
2023-04-16T03:17:29.949Z,2.00
2023-04-16T03:19:58.401Z,1.70
2023-04-16T03:22:28.259Z,2.30
2023-04-16T03:24:56.802Z,1.80
2023-04-16T03:27:25.468Z,2.10
2023-04-16T03:29:53.828Z,1.55
2023-04-16T03:32:22.272Z,1.80
2023-04-16T03:34:50.900Z,2.05
2023-04-16T03:37:19.237Z,1.85
2023-04-16T03:39:48.978Z,2.10
2023-04-16T03:42:17.555Z,1.95
2023-04-16T03:44:46.029Z,2.33
2023-04-16T03:47:14.417Z,1.92
2023-04-16T03:49:42.858Z,2.47
2023-04-16T03:52:11.694Z,1.92
2023-04-16T03:54:40.063Z,2.38
2023-04-16T03:57:09.825Z,2.28
2023-04-16T03:59:38.185Z,3.00
2023-04-16T04:02:06.744Z,2.95
2023-04-16T04:04:35.322Z,2.17
2023-04-16T04:07:03.880Z,2.47
2023-04-16T04:09:32.269Z,2.53
2023-04-16T04:12:00.866Z,2.92
2023-04-16T04:14:30.619Z,2.17
2023-04-16T04:16:58.988Z,2.22
2023-04-16T04:19:27.476Z,2.72
2023-04-16T04:21:55.894Z,2.90
2023-04-16T04:24:24.320Z,2.85
2023-04-16T04:26:52.708Z,2.58
2023-04-16T04:29:21.232Z,1.80
2023-04-16T04:31:51.279Z,1.92
2023-04-16T04:34:19.672Z,3.47
2023-04-16T04:36:47.840Z,2.78
2023-04-16T04:39:16.363Z,2.38
2023-04-16T04:41:44.782Z,2.40
2023-04-16T04:44:13.197Z,2.70
2023-04-16T04:46:41.649Z,3.95
2023-04-16T04:49:11.618Z,2.90
2023-04-16T04:51:40.166Z,2.13
2023-04-16T04:54:08.582Z,2.95
2023-04-16T04:56:37.001Z,2.38
2023-04-16T04:59:06.147Z,2.60
2023-04-16T05:01:34.683Z,3.17
2023-04-16T05:04:03.262Z,3.10
2023-04-16T05:06:33.095Z,3.20
2023-04-16T05:09:01.605Z,2.35
2023-04-16T05:11:30.058Z,2.85
2023-04-16T05:13:58.458Z,2.65
2023-04-16T05:16:26.991Z,2.38
2023-04-16T05:18:56.122Z,2.63
2023-04-16T05:21:24.493Z,2.90
2023-04-16T05:23:54.250Z,2.00
2023-04-16T05:26:23.563Z,2.50
2023-04-16T05:28:51.914Z,2.42
2023-04-16T05:31:20.679Z,3.17
2023-04-16T05:33:49.238Z,1.90
2023-04-16T05:36:17.744Z,3.35
2023-04-16T05:38:46.188Z,2.88
2023-04-16T05:41:16.005Z,2.13
2023-04-16T05:43:44.425Z,2.28
2023-04-16T05:46:12.946Z,2.13
2023-04-16T05:48:41.518Z,2.58
2023-04-16T05:51:09.887Z,3.45
2023-04-16T05:53:38.331Z,2.97
2023-04-16T05:56:06.995Z,2.22
2023-04-16T05:58:36.784Z,2.88
2023-04-16T06:01:05.174Z,2.05
2023-04-16T06:03:33.743Z,2.08
2023-04-16T06:06:02.339Z,3.08
2023-04-16T06:08:30.943Z,2.33
2023-04-16T06:10:59.407Z,2.05
2023-04-16T06:13:27.805Z,2.20
2023-04-16T06:15:57.633Z,2.15
2023-04-16T06:18:26.288Z,2.03
2023-04-16T06:20:54.737Z,2.88
2023-04-16T06:23:23.146Z,2.03
2023-04-16T06:25:51.817Z,2.90
2023-04-16T06:28:20.362Z,3.65
2023-04-16T06:30:49.101Z,3.63
2023-04-16T06:33:18.869Z,2.80
2023-04-16T06:35:47.297Z,2.65
2023-04-16T06:38:16.306Z,3.22
2023-04-16T06:40:44.698Z,3.60
2023-04-16T06:43:13.365Z,2.72
2023-04-16T06:45:41.718Z,4.22
2023-04-16T06:48:10.122Z,2.67
2023-04-16T06:50:39.842Z,3.78
2023-04-16T06:53:08.249Z,2.92
2023-04-16T06:55:36.713Z,4.15
2023-04-16T06:58:05.166Z,2.95
2023-04-16T07:00:33.652Z,3.35
2023-04-16T07:03:03.492Z,3.78
2023-04-16T07:05:33.244Z,4.40
2023-04-16T07:08:02.980Z,4.18
2023-04-16T07:10:31.415Z,3.05
2023-04-16T07:13:01.601Z,3.35
2023-04-16T07:15:30.923Z,3.55
2023-04-16T07:17:59.409Z,3.00
2023-04-16T07:20:27.929Z,3.30
2023-04-16T07:22:56.326Z,3.58
2023-04-16T07:25:26.930Z,3.47
2023-04-16T07:27:55.345Z,2.80
2023-04-16T07:30:23.784Z,3.15
2023-04-16T07:32:52.907Z,2.83
2023-04-16T07:35:21.451Z,4.50
2023-04-16T07:37:49.999Z,3.85
2023-04-16T07:40:18.502Z,3.60
2023-04-16T07:42:48.233Z,4.80
2023-04-16T07:45:16.780Z,3.63
2023-04-16T07:47:45.465Z,4.35
2023-04-16T07:50:13.682Z,4.30
2023-04-16T07:52:43.729Z,4.28
2023-04-16T07:55:11.944Z,2.67
2023-04-16T07:57:40.228Z,4.55
2023-04-16T08:00:11.638Z,3.42
2023-04-16T08:02:39.947Z,3.45
2023-04-16T08:05:08.991Z,3.72
2023-04-16T08:07:37.388Z,3.33
2023-04-16T08:10:06.251Z,4.65
2023-04-16T08:12:34.568Z,4.18
2023-04-16T08:15:02.850Z,3.70
2023-04-16T08:17:34.422Z,4.20
2023-04-16T08:20:02.735Z,5.70
2023-04-16T08:22:30.906Z,5.75
2023-04-16T08:24:59.249Z,4.90
2023-04-16T08:27:27.393Z,6.10
2023-04-16T08:29:55.610Z,3.28
2023-04-16T08:32:24.091Z,4.63
2023-04-16T08:34:53.928Z,4.25
2023-04-16T08:37:22.097Z,5.85
2023-04-16T08:39:50.259Z,3.45
2023-04-16T08:42:26.514Z,3.55
2023-04-16T08:44:59.378Z,4.38
2023-04-16T08:47:30.269Z,5.70
2023-04-16T08:50:01.191Z,4.80
2023-04-16T08:52:31.885Z,4.90
2023-04-16T08:55:05.701Z,5.28
2023-04-16T08:57:41.525Z,5.78
2023-04-16T09:00:10.951Z,3.65
2023-04-16T09:02:40.503Z,5.25
2023-04-16T09:05:11.728Z,4.32
2023-04-16T09:07:40.569Z,6.28
2023-04-16T09:10:11.087Z,6.40
2023-04-16T09:12:39.488Z,3.83
2023-04-16T09:15:09.026Z,4.53
2023-04-16T09:17:37.441Z,4.45
2023-04-16T09:20:08.770Z,4.78
2023-04-16T09:22:38.875Z,4.55
2023-04-16T09:25:07.979Z,7.40
2023-04-16T09:27:37.276Z,4.57
2023-04-16T09:30:22.155Z,6.15
2023-04-16T09:32:50.768Z,4.55
2023-04-16T09:35:20.440Z,6.55
2023-04-16T09:37:59.119Z,5.20
2023-04-16T09:40:30.530Z,5.60
2023-04-16T09:43:00.926Z,3.80
2023-04-16T09:45:34.034Z,7.47
2023-04-16T09:48:05.458Z,5.60
2023-04-16T09:50:33.985Z,4.68
2023-04-16T09:53:04.740Z,4.07
2023-04-16T09:55:34.502Z,4.28
2023-04-16T09:58:03.354Z,5.72
2023-04-16T10:00:32.366Z,5.55
2023-04-16T10:03:07.544Z,8.23
2023-04-16T10:08:12.801Z,4.15
2023-04-16T10:10:42.115Z,5.40
2023-04-16T10:13:10.765Z,5.70
2023-04-16T10:15:39.632Z,5.22
2023-04-16T10:18:08.195Z,7.18
2023-04-16T10:20:37.004Z,4.28
2023-04-16T10:23:07.250Z,6.28
2023-04-16T10:25:35.995Z,4.05
2023-04-16T10:28:05.016Z,5.40
2023-04-16T10:30:33.562Z,4.47
2023-04-16T10:33:02.439Z,5.05
2023-04-16T10:35:31.988Z,4.82
2023-04-16T10:38:20.436Z,4.78
2023-04-16T10:40:50.391Z,4.78
2023-04-16T10:43:21.001Z,5.45
2023-04-16T10:45:49.864Z,5.15
2023-04-16T10:48:20.419Z,4.80
2023-04-16T10:50:56.734Z,4.00
2023-04-16T10:53:25.818Z,5.95
2023-04-16T10:56:15.558Z,3.83
2023-04-16T10:58:45.412Z,4.82
2023-04-16T11:01:14.729Z,6.60
2023-04-16T11:03:47.023Z,5.30
2023-04-16T11:06:17.511Z,6.35
2023-04-16T11:08:54.703Z,2.83
2023-04-16T11:11:23.802Z,5.38
2023-04-16T11:13:57.029Z,3.53
2023-04-16T11:16:29.505Z,4.07
2023-04-16T11:18:58.378Z,5.57
2023-04-16T11:21:26.956Z,6.20
2023-04-16T11:23:56.812Z,6.30
2023-04-16T11:26:26.085Z,7.35
2023-04-16T11:28:56.930Z,5.40
2023-04-16T11:31:27.264Z,4.82
2023-04-16T11:33:57.825Z,5.68
2023-04-16T11:36:27.698Z,6.75
2023-04-16T11:39:03.475Z,6.03
2023-04-16T11:44:01.487Z,6.50
2023-04-16T11:46:40.900Z,7.47
2023-04-16T11:49:09.770Z,4.32
2023-04-16T11:51:41.646Z,7.38
2023-04-16T11:54:12.063Z,7.00
2023-04-16T11:56:40.813Z,5.47
2023-04-16T11:59:11.752Z,5.90
2023-04-16T12:01:41.340Z,6.65
2023-04-16T12:04:10.326Z,6.13
2023-04-16T12:06:38.950Z,9.88
2023-04-16T12:09:27.199Z,8.70
2023-04-16T12:11:55.718Z,6.57
2023-04-16T12:14:25.920Z,6.57
2023-04-16T12:16:54.415Z,9.10
2023-04-16T12:19:23.035Z,6.90
2023-04-16T12:21:52.343Z,7.32
2023-04-16T12:24:22.715Z,8.43
2023-04-16T12:26:57.655Z,5.93
2023-04-16T12:29:28.437Z,11.20
2023-04-16T12:31:56.929Z,6.82
2023-04-16T12:34:28.949Z,8.68
2023-04-16T12:37:14.981Z,7.50
2023-04-16T12:39:43.768Z,7.43
2023-04-16T12:42:12.895Z,7.85
2023-04-16T12:44:42.727Z,9.50
2023-04-16T12:47:11.138Z,9.07
2023-04-16T12:49:39.560Z,6.82
2023-04-16T12:52:07.971Z,8.70
2023-04-16T12:54:36.505Z,8.82
2023-04-16T12:57:05.073Z,7.22
2023-04-16T12:59:33.571Z,11.30
2023-04-16T13:02:04.127Z,10.30
2023-04-16T13:04:32.748Z,8.10
2023-04-16T13:07:01.607Z,7.10
2023-04-16T13:09:30.076Z,9.13
2023-04-16T13:11:58.558Z,8.95
2023-04-16T13:14:27.416Z,9.73
2023-04-16T13:16:55.844Z,8.07
2023-04-16T13:19:25.609Z,10.43
2023-04-16T13:21:54.063Z,12.48
2023-04-16T13:24:23.212Z,10.90
2023-04-16T13:26:52.990Z,10.88
2023-04-16T13:29:21.424Z,9.90
2023-04-16T13:31:50.146Z,10.60
2023-04-16T13:34:18.705Z,7.75
2023-04-16T13:36:48.649Z,8.75
2023-04-16T13:39:17.613Z,8.80
2023-04-16T13:41:46.130Z,7.70
2023-04-16T13:44:14.622Z,10.50
2023-04-16T13:46:47.606Z,8.35
2023-04-16T13:49:16.397Z,9.82
2023-04-16T13:51:45.423Z,11.20
2023-04-16T13:54:15.272Z,9.93
2023-04-16T13:56:43.947Z,10.63
2023-04-16T13:59:12.513Z,7.03
2023-04-16T14:01:41.882Z,10.93
2023-04-16T14:04:10.391Z,6.95
2023-04-16T14:06:38.925Z,10.60
2023-04-16T14:09:07.763Z,9.32
2023-04-16T14:11:38.046Z,9.30
2023-04-16T14:14:06.620Z,8.55
2023-04-16T14:16:35.251Z,10.43
2023-04-16T14:19:03.713Z,8.73
2023-04-16T14:21:32.466Z,10.05
2023-04-16T14:24:00.894Z,8.10
2023-04-16T14:26:29.405Z,10.32
2023-04-16T14:28:59.247Z,6.70
2023-04-16T14:31:27.883Z,11.15
2023-04-16T14:33:56.702Z,9.35
2023-04-16T14:36:25.683Z,6.72
2023-04-16T14:38:54.110Z,10.55
2023-04-16T14:41:22.553Z,9.10
2023-04-16T14:43:50.998Z,9.13
2023-04-16T14:46:20.866Z,9.02
2023-04-16T14:48:49.329Z,9.98
2023-04-16T14:51:17.791Z,8.70
2023-04-16T14:53:46.265Z,9.75
2023-04-16T14:56:14.684Z,8.57
2023-04-16T14:58:43.511Z,9.07
2023-04-16T15:01:13.713Z,9.73
2023-04-16T15:03:44.124Z,11.85
2023-04-16T15:06:13.845Z,6.57
2023-04-16T15:08:42.375Z,6.75
2023-04-16T15:11:10.810Z,9.25
2023-04-16T15:13:39.452Z,7.55
2023-04-16T15:16:07.955Z,9.50
2023-04-16T15:18:37.086Z,8.95
2023-04-16T15:21:07.030Z,9.88
2023-04-16T15:23:35.402Z,8.82
2023-04-16T15:26:03.857Z,8.65
2023-04-16T15:28:32.235Z,6.40
2023-04-16T15:31:00.766Z,10.00
2023-04-16T15:33:29.243Z,10.30
2023-04-16T15:35:57.746Z,7.22
2023-04-16T15:38:29.791Z,8.40
2023-04-16T15:41:00.841Z,8.02
2023-04-16T15:43:30.164Z,6.43
2023-04-16T15:45:58.645Z,8.15
2023-04-16T15:48:27.106Z,9.00
2023-04-16T15:50:56.852Z,7.78
2023-04-16T15:53:25.272Z,8.75
2023-04-16T15:55:55.052Z,10.20
2023-04-16T15:58:23.461Z,8.85
2023-04-16T16:00:51.896Z,10.57
2023-04-16T16:03:20.610Z,10.68
2023-04-16T16:05:49.271Z,10.40
2023-04-16T16:08:18.464Z,6.70
2023-04-16T16:10:46.919Z,10.63
2023-04-16T16:13:18.327Z,8.70
2023-04-16T16:15:46.588Z,6.20
2023-04-16T16:18:14.841Z,5.80
2023-04-16T16:20:43.003Z,8.80
2023-04-16T16:23:11.540Z,8.68
2023-04-16T16:25:39.864Z,10.40
2023-04-16T16:28:07.995Z,10.07
2023-04-16T16:30:37.553Z,8.45
2023-04-16T16:33:05.776Z,9.02
2023-04-16T16:35:34.201Z,8.63
2023-04-16T16:38:02.672Z,7.18
2023-04-16T16:40:31.583Z,8.85
2023-04-16T16:42:59.856Z,8.20
2023-04-16T16:45:28.700Z,10.45
2023-04-16T16:47:58.992Z,10.27
2023-04-16T16:50:27.195Z,11.60
2023-04-16T16:52:55.347Z,9.48
2023-04-16T16:55:23.868Z,8.43
2023-04-16T16:57:52.243Z,10.95
2023-04-16T17:00:21.872Z,8.45
2023-04-16T17:02:52.061Z,6.53
2023-04-16T17:05:22.090Z,7.10
2023-04-16T17:07:50.470Z,8.85
2023-04-16T17:10:21.321Z,6.38
2023-04-16T17:12:49.949Z,7.28
2023-04-16T17:15:21.124Z,6.82
2023-04-16T17:17:50.166Z,6.57
2023-04-16T17:20:18.427Z,9.35
2023-04-16T17:22:48.006Z,6.72
2023-04-16T17:25:16.159Z,7.78
2023-04-16T17:27:44.359Z,10.60
2023-04-16T17:30:12.965Z,7.50
2023-04-16T17:32:41.255Z,8.48
2023-04-16T17:35:10.993Z,9.50
2023-04-16T17:37:39.225Z,8.55
2023-04-16T17:40:10.227Z,5.97
2023-04-16T17:42:38.653Z,8.95
2023-04-16T17:45:07.798Z,7.57
2023-04-16T17:47:36.877Z,7.47
2023-04-16T17:50:05.613Z,5.32
2023-04-16T17:52:33.798Z,8.48
2023-04-16T17:55:02.016Z,10.65
2023-04-16T17:57:32.291Z,7.80
2023-04-16T18:00:00.726Z,6.25
2023-04-16T18:02:29.207Z,9.23
2023-04-16T18:04:57.698Z,7.40
2023-04-16T18:07:26.493Z,6.47
2023-04-16T18:09:54.790Z,7.60
2023-04-16T18:12:23.011Z,8.50
2023-04-16T18:14:52.563Z,7.40
2023-04-16T18:17:21.966Z,9.55
2023-04-16T18:19:50.313Z,9.50
2023-04-16T18:22:18.474Z,9.25
2023-04-16T18:24:46.862Z,7.15
2023-04-16T18:27:15.124Z,10.50
2023-04-16T18:29:45.239Z,6.57
2023-04-16T18:32:15.004Z,8.68
2023-04-16T18:34:43.286Z,8.88
2023-04-16T18:37:11.511Z,11.27
2023-04-16T18:39:39.978Z,12.82
2023-04-16T18:42:08.322Z,12.90
2023-04-16T18:44:36.360Z,9.93
2023-04-16T18:47:04.565Z,12.50
2023-04-16T18:49:34.109Z,10.73
2023-04-16T18:52:02.587Z,9.10
2023-04-16T18:54:31.033Z,8.02
2023-04-16T18:57:00.801Z,8.98
2023-04-16T18:59:29.466Z,10.65
2023-04-16T19:01:57.978Z,10.27
2023-04-16T19:04:26.567Z,9.90
2023-04-16T19:06:56.670Z,10.65
2023-04-16T19:09:27.427Z,9.63
2023-04-16T19:11:56.068Z,9.43
2023-04-16T19:14:24.467Z,10.20
2023-04-16T19:16:52.911Z,7.03
2023-04-16T19:19:21.317Z,10.50
2023-04-16T19:21:50.433Z,7.40
2023-04-16T19:24:20.211Z,7.13
2023-04-16T19:26:48.723Z,8.32
2023-04-16T19:29:18.017Z,9.57
2023-04-16T19:31:47.413Z,11.15
2023-04-16T19:34:16.938Z,10.50
2023-04-16T19:36:45.948Z,8.40
2023-04-16T19:39:14.097Z,9.82
2023-04-16T19:41:43.638Z,11.63
2023-04-16T19:44:12.235Z,8.45
2023-04-16T19:46:40.338Z,14.25
2023-04-16T19:49:08.617Z,12.00
2023-04-16T19:51:36.802Z,6.28
2023-04-16T19:54:05.032Z,14.95
2023-04-16T19:56:33.120Z,12.15
2023-04-16T19:59:02.674Z,12.05
2023-04-16T20:01:31.837Z,15.80
2023-04-16T20:04:00.051Z,10.65
2023-04-16T20:06:28.215Z,12.70
2023-04-16T20:08:57.745Z,10.20
2023-04-16T20:11:25.962Z,13.15
2023-04-16T20:13:54.420Z,8.75
2023-04-16T20:16:24.183Z,15.82
2023-04-16T20:18:54.334Z,12.05
2023-04-16T20:21:22.650Z,13.13
2023-04-16T20:23:50.794Z,10.30
2023-04-16T20:26:19.353Z,12.45
2023-04-16T20:28:47.506Z,11.10
2023-04-16T20:31:15.732Z,15.60
2023-04-16T20:33:45.509Z,11.25
2023-04-16T20:36:13.665Z,11.07
2023-04-16T20:38:43.687Z,11.10
2023-04-16T20:41:14.530Z,8.68
2023-04-16T20:43:43.069Z,10.75
2023-04-16T20:46:12.475Z,8.45
2023-04-16T20:48:40.751Z,12.13
2023-04-16T20:51:10.463Z,8.50
2023-04-16T20:53:38.668Z,13.48
2023-04-16T20:56:08.983Z,14.45
2023-04-16T20:58:37.164Z,7.30
2023-04-16T21:01:06.005Z,15.93
2023-04-16T21:03:34.389Z,10.35
2023-04-16T21:06:03.651Z,13.10
2023-04-16T21:08:33.232Z,9.20
2023-04-16T21:11:01.656Z,12.90
2023-04-16T21:13:29.838Z,12.02
2023-04-16T21:15:58.143Z,16.67
2023-04-16T21:18:26.541Z,14.50
2023-04-16T21:20:54.687Z,12.63
2023-04-16T21:23:22.852Z,15.15
2023-04-16T21:25:52.394Z,11.45
2023-04-16T21:28:20.538Z,15.40
2023-04-16T21:30:52.301Z,12.90
2023-04-16T21:33:20.435Z,6.57
2023-04-16T21:35:53.098Z,12.73
2023-04-16T21:38:21.956Z,15.68
2023-04-16T21:40:54.029Z,14.80
2023-04-16T21:43:22.250Z,16.30
2023-04-16T21:45:52.920Z,10.85
2023-04-16T21:48:21.210Z,11.57
2023-04-16T21:50:54.862Z,11.95
2023-04-16T21:53:23.308Z,14.77
2023-04-16T21:55:53.040Z,15.43
2023-04-16T21:58:21.131Z,18.00
2023-04-16T22:00:49.291Z,13.65
2023-04-16T22:03:19.141Z,14.38
2023-04-16T22:05:47.828Z,19.27
2023-04-16T22:08:24.110Z,21.33
2023-04-16T22:10:58.138Z,15.68
2023-04-16T22:13:26.956Z,13.10
2023-04-16T22:15:57.804Z,13.73
2023-04-16T22:18:26.520Z,13.88
2023-04-16T22:20:55.314Z,20.38
2023-04-16T22:23:23.967Z,18.90
2023-04-16T22:25:53.093Z,14.07
2023-04-16T22:28:22.641Z,15.25
2023-04-16T22:30:51.161Z,21.55
2023-04-16T22:33:19.306Z,19.48
2023-04-16T22:35:47.483Z,21.63
2023-04-16T22:38:16.555Z,16.02
2023-04-16T22:40:44.682Z,13.77
2023-04-16T22:43:16.133Z,16.35
2023-04-16T22:45:47.280Z,18.25
2023-04-16T22:48:18.724Z,10.60
2023-04-16T22:50:48.589Z,13.73
2023-04-16T22:53:17.909Z,23.73
2023-04-16T22:55:46.379Z,16.42
2023-04-16T22:58:14.518Z,8.77
2023-04-16T23:00:43.026Z,17.60
2023-04-16T23:03:12.794Z,16.90
2023-04-16T23:05:41.092Z,19.42
2023-04-16T23:08:09.504Z,24.15
2023-04-16T23:10:37.992Z,18.73
2023-04-16T23:13:06.463Z,19.33
2023-04-16T23:15:34.925Z,22.45
2023-04-16T23:18:03.398Z,22.30
2023-04-16T23:20:32.935Z,13.27
2023-04-16T23:23:01.406Z,16.70
2023-04-16T23:25:29.539Z,12.95
2023-04-16T23:27:57.797Z,19.13
2023-04-16T23:30:26.013Z,22.80
2023-04-16T23:32:54.145Z,17.08
2023-04-16T23:35:22.964Z,17.27
2023-04-16T23:37:52.732Z,18.58
2023-04-16T23:40:21.164Z,16.05
2023-04-16T23:42:49.613Z,14.43
2023-04-16T23:45:18.081Z,10.80
2023-04-16T23:47:47.078Z,19.17
2023-04-16T23:50:15.536Z,19.23
2023-04-16T23:52:43.928Z,19.17
2023-04-16T23:55:15.962Z,16.45
2023-04-16T23:57:44.056Z,14.65
